createdAt,value
2019-02-04T00:01:59.695Z,69.70
2019-02-04T00:04:30.665Z,69.30
2019-02-04T00:07:00.396Z,69.20
2019-02-04T00:09:30.212Z,69.40
2019-02-04T00:12:00.091Z,69.20
2019-02-04T00:14:29.633Z,69.30
2019-02-04T00:16:59.717Z,69.50
2019-02-04T00:19:29.558Z,69.60
2019-02-04T00:21:59.365Z,70.10
2019-02-04T00:24:29.196Z,69.90
2019-02-04T00:26:59.024Z,70.90
2019-02-04T00:29:28.607Z,71.20
2019-02-04T00:31:58.177Z,70.90
2019-02-04T00:34:27.998Z,71.10
2019-02-04T00:36:57.598Z,71.50
2019-02-04T00:39:27.152Z,71.80
2019-02-04T00:41:56.735Z,71.50
2019-02-04T00:44:26.264Z,71.50
2019-02-04T00:46:56.162Z,71.70
2019-02-04T00:49:25.744Z,71.60
2019-02-04T00:51:55.567Z,71.40
2019-02-04T00:54:25.387Z,71.30
2019-02-04T00:56:55.241Z,71.10
2019-02-04T00:59:25.642Z,71.30
2019-02-04T01:01:55.199Z,71.40
2019-02-04T01:04:24.871Z,71.40
2019-02-04T01:06:55.060Z,71.60
2019-02-04T01:09:24.581Z,71.90
2019-02-04T01:11:54.472Z,71.90
2019-02-04T01:14:24.023Z,71.70
2019-02-04T01:17:03.203Z,70.90
2019-02-04T01:19:25.284Z,70.90
2019-02-04T01:21:55.437Z,71.70
2019-02-04T01:24:25.023Z,72.00
2019-02-04T01:26:54.839Z,72.00
2019-02-04T01:29:24.423Z,72.40
2019-02-04T01:31:54.448Z,72.30
2019-02-04T01:34:24.280Z,72.80
2019-02-04T01:36:53.898Z,72.10
2019-02-04T01:39:23.933Z,73.00
2019-02-04T01:41:53.524Z,72.90
2019-02-04T01:44:23.091Z,73.10
2019-02-04T01:46:52.973Z,73.20
2019-02-04T01:49:23.035Z,72.80
2019-02-04T01:51:52.921Z,71.80
2019-02-04T01:54:22.434Z,72.30
2019-02-04T01:56:52.014Z,72.10
2019-02-04T01:59:21.553Z,71.80
2019-02-04T02:01:51.656Z,71.20
2019-02-04T02:04:21.491Z,70.80
2019-02-04T02:06:51.060Z,71.10
2019-02-04T02:09:22.923Z,71.00
2019-02-04T02:11:52.564Z,70.50
2019-02-04T02:14:22.808Z,70.70
2019-02-04T02:16:52.394Z,71.00
2019-02-04T02:19:22.467Z,71.40
2019-02-04T02:21:52.009Z,71.10
2019-02-04T02:24:21.572Z,71.10
2019-02-04T02:26:51.447Z,71.10
2019-02-04T02:29:21.260Z,70.90
2019-02-04T02:31:51.108Z,71.10
2019-02-04T02:34:20.692Z,70.80
2019-02-04T02:36:50.823Z,71.00
2019-02-04T02:39:20.399Z,70.60
2019-02-04T02:41:50.661Z,70.40
2019-02-04T02:44:20.776Z,69.60
2019-02-04T02:46:50.325Z,70.10
2019-02-04T02:49:19.890Z,70.30
2019-02-04T02:51:49.472Z,70.00
2019-02-04T02:54:19.843Z,69.80
2019-02-04T02:56:50.000Z,69.60
2019-02-04T02:59:19.533Z,69.60
2019-02-04T03:01:49.115Z,69.60
2019-02-04T03:04:18.903Z,69.30
2019-02-04T03:06:48.987Z,70.40
2019-02-04T03:09:18.824Z,70.60
2019-02-04T03:11:48.355Z,70.80
2019-02-04T03:14:18.439Z,70.50
2019-02-04T03:16:48.020Z,70.00
2019-02-04T03:19:17.697Z,69.30
2019-02-04T03:21:47.259Z,69.60
2019-02-04T03:24:17.168Z,69.20
2019-02-04T03:26:46.700Z,68.50
2019-02-04T03:29:16.333Z,68.60
2019-02-04T03:31:46.598Z,69.50
2019-02-04T03:34:16.781Z,69.10
2019-02-04T03:36:46.354Z,68.70
2019-02-04T03:39:15.906Z,68.40
2019-02-04T03:41:45.746Z,67.70
2019-02-04T03:44:15.356Z,67.80
2019-02-04T03:46:45.385Z,67.50
2019-02-04T03:49:15.256Z,67.10
2019-02-04T03:51:45.079Z,67.00
2019-02-04T03:54:14.894Z,66.70
2019-02-04T03:56:44.738Z,65.90
2019-02-04T03:59:14.827Z,66.30
2019-02-04T04:01:44.399Z,65.70
2019-02-04T04:04:13.926Z,65.60
2019-02-04T04:06:43.807Z,65.70
2019-02-04T04:09:13.328Z,65.60
2019-02-04T04:11:43.286Z,65.70
2019-02-04T04:14:13.362Z,66.00
2019-02-04T04:16:42.920Z,65.50
2019-02-04T04:19:13.024Z,65.50
2019-02-04T04:21:42.686Z,65.40
2019-02-04T04:24:12.498Z,65.10
2019-02-04T04:26:42.060Z,65.60
2019-02-04T04:29:11.887Z,65.40
2019-02-04T04:31:41.470Z,64.80
2019-02-04T04:34:11.295Z,65.00
2019-02-04T04:36:40.887Z,64.90
2019-02-04T04:39:10.700Z,63.90
2019-02-04T04:41:40.537Z,63.80
2019-02-04T04:44:10.659Z,63.60
2019-02-04T04:46:40.842Z,63.70
2019-02-04T04:49:10.599Z,63.50
2019-02-04T04:51:40.185Z,63.00
2019-02-04T04:54:10.286Z,62.30
2019-02-04T04:56:40.421Z,62.30
2019-02-04T04:59:09.955Z,62.30
2019-02-04T05:01:40.067Z,61.70
2019-02-04T05:04:09.634Z,61.60
2019-02-04T05:06:39.487Z,61.40
2019-02-04T05:09:09.028Z,61.70
2019-02-04T05:11:38.579Z,61.80
2019-02-04T05:14:08.171Z,61.70
2019-02-04T05:16:38.277Z,61.40
2019-02-04T05:19:07.850Z,61.50
2019-02-04T05:21:37.475Z,61.10
2019-02-04T05:24:07.009Z,60.90
2019-02-04T05:26:36.827Z,61.10
2019-02-04T05:29:06.820Z,60.90
2019-02-04T05:31:36.377Z,60.80
2019-02-04T05:34:05.954Z,60.50
2019-02-04T05:36:35.803Z,60.40
2019-02-04T05:39:08.227Z,60.50
2019-02-04T05:41:38.660Z,60.50
2019-02-04T05:44:08.333Z,60.80
2019-02-04T05:46:37.916Z,60.80
2019-02-04T05:49:07.744Z,60.50
2019-02-04T05:51:37.330Z,60.10
2019-02-04T05:54:06.939Z,60.30
2019-02-04T05:56:36.616Z,60.30
2019-02-04T05:59:06.140Z,60.60
2019-02-04T06:01:35.963Z,59.80
2019-02-04T06:04:05.893Z,60.20
2019-02-04T06:06:35.486Z,59.90
2019-02-04T06:09:08.488Z,59.90
2019-02-04T06:11:38.333Z,59.70
2019-02-04T06:14:07.934Z,60.00
2019-02-04T06:16:37.468Z,60.20
2019-02-04T06:19:08.254Z,60.30
2019-02-04T06:21:38.464Z,60.70
2019-02-04T06:24:08.307Z,61.00
2019-02-04T06:26:38.357Z,61.30
2019-02-04T06:29:07.950Z,61.50
2019-02-04T06:31:37.472Z,62.00
2019-02-04T06:34:07.296Z,61.70
2019-02-04T06:36:37.077Z,61.20
2019-02-04T06:39:11.272Z,61.10
2019-02-04T06:41:41.117Z,61.40
2019-02-04T06:44:11.527Z,61.70
2019-02-04T06:46:41.607Z,61.50
2019-02-04T06:49:12.617Z,61.70
2019-02-04T06:51:42.235Z,61.70
2019-02-04T06:54:12.068Z,61.70
2019-02-04T06:56:41.900Z,61.90
2019-02-04T06:59:11.712Z,62.20
2019-02-04T07:01:41.515Z,61.80
2019-02-04T07:04:11.582Z,61.90
2019-02-04T07:06:41.368Z,61.80
2019-02-04T07:09:12.236Z,62.10
2019-02-04T07:11:42.308Z,62.20
2019-02-04T07:14:12.132Z,62.20
2019-02-04T07:16:41.997Z,62.20
2019-02-04T07:19:23.452Z,62.30
2019-02-04T07:21:43.314Z,62.30
2019-02-04T07:24:13.450Z,62.30
2019-02-04T07:26:43.248Z,62.20
2019-02-04T07:29:12.856Z,62.50
2019-02-04T07:31:43.324Z,62.30
2019-02-04T07:34:12.916Z,62.50
2019-02-04T07:36:42.458Z,62.50
2019-02-04T07:39:12.284Z,62.40
2019-02-04T07:41:42.156Z,62.20
2019-02-04T07:44:12.002Z,62.20
2019-02-04T07:46:41.804Z,62.40
2019-02-04T07:49:11.366Z,62.50
2019-02-04T07:51:41.211Z,62.00
2019-02-04T07:54:11.022Z,61.70
2019-02-04T07:56:40.686Z,61.80
2019-02-04T07:59:10.749Z,61.40
2019-02-04T08:01:40.379Z,61.60
2019-02-04T08:04:09.926Z,60.80
2019-02-04T08:06:39.792Z,60.20
2019-02-04T08:09:10.631Z,60.10
2019-02-04T08:11:40.238Z,59.80
2019-02-04T08:14:10.103Z,59.00
2019-02-04T08:16:39.935Z,58.60
2019-02-04T08:19:09.497Z,58.20
2019-02-04T08:21:39.374Z,56.70
2019-02-04T08:24:09.558Z,54.40
2019-02-04T08:26:39.131Z,54.60
2019-02-04T08:29:09.092Z,53.70
2019-02-04T08:31:38.658Z,52.90
2019-02-04T08:34:08.987Z,52.60
2019-02-04T08:36:44.322Z,52.40
2019-02-04T08:39:10.123Z,50.70
2019-02-04T08:41:40.020Z,50.50
2019-02-04T08:44:09.691Z,49.70
2019-02-04T08:46:39.587Z,50.10
2019-02-04T08:49:09.414Z,49.80
2019-02-04T08:51:38.974Z,48.90
2019-02-04T08:54:09.053Z,48.00
2019-02-04T08:56:38.611Z,47.60
2019-02-04T08:59:08.180Z,46.30
2019-02-04T09:01:38.059Z,46.80
2019-02-04T09:04:07.883Z,45.20
2019-02-04T09:06:37.561Z,45.70
2019-02-04T09:09:10.671Z,44.30
2019-02-04T09:11:40.260Z,44.10
2019-02-04T09:14:09.793Z,44.00
2019-02-04T09:16:39.421Z,42.00
2019-02-04T09:19:09.385Z,42.30
2019-02-04T09:21:39.045Z,42.30
2019-02-04T09:24:08.642Z,41.90
2019-02-04T09:26:38.199Z,41.40
2019-02-04T09:29:08.054Z,41.30
2019-02-04T09:31:37.627Z,41.20
2019-02-04T09:34:07.499Z,39.70
2019-02-04T09:36:37.271Z,40.00
2019-02-04T09:39:09.628Z,39.50
2019-02-04T09:41:39.586Z,39.00
2019-02-04T09:44:09.657Z,38.30
2019-02-04T09:46:39.450Z,37.30
2019-02-04T09:49:09.349Z,37.40
2019-02-04T09:51:39.419Z,38.20
2019-02-04T09:54:09.435Z,36.70
2019-02-04T09:56:39.085Z,36.50
2019-02-04T09:59:09.253Z,36.00
2019-02-04T10:01:38.784Z,35.60
2019-02-04T10:04:08.811Z,35.60
2019-02-04T10:06:38.563Z,35.70
2019-02-04T10:09:10.168Z,35.10
2019-02-04T10:11:40.264Z,35.60
2019-02-04T10:14:09.835Z,33.40
2019-02-04T10:16:39.680Z,32.40
2019-02-04T10:19:09.299Z,31.90
2019-02-04T10:21:38.868Z,32.00
2019-02-04T10:24:08.754Z,32.00
2019-02-04T10:26:38.318Z,30.10
2019-02-04T10:29:07.941Z,28.90
2019-02-04T10:31:37.759Z,28.70
2019-02-04T10:34:07.358Z,29.10
2019-02-04T10:36:37.224Z,28.10
2019-02-04T10:39:09.380Z,29.70
2019-02-04T10:41:39.175Z,28.80
2019-02-04T10:44:08.754Z,29.10
2019-02-04T10:46:38.343Z,28.30
2019-02-04T10:49:07.900Z,27.40
2019-02-04T10:51:37.629Z,26.00
2019-02-04T10:54:07.667Z,26.20
2019-02-04T10:56:37.509Z,25.40
2019-02-04T10:59:07.368Z,25.40
2019-02-04T11:01:37.315Z,25.50
2019-02-04T11:04:07.438Z,24.40
2019-02-04T11:06:37.143Z,22.80
2019-02-04T11:09:09.783Z,23.20
2019-02-04T11:11:39.412Z,23.20
2019-02-04T11:14:09.049Z,22.90
2019-02-04T11:16:38.574Z,23.20
2019-02-04T11:19:08.537Z,23.20
2019-02-04T11:21:38.570Z,23.00
2019-02-04T11:24:08.237Z,22.60
2019-02-04T11:26:38.163Z,21.60
2019-02-04T11:29:07.677Z,21.50
2019-02-04T11:31:37.824Z,21.80
2019-02-04T11:34:07.450Z,21.20
2019-02-04T11:36:37.236Z,21.10
2019-02-04T11:39:08.999Z,21.00
2019-02-04T11:41:39.057Z,20.70
2019-02-04T11:44:08.632Z,20.80
2019-02-04T11:46:39.062Z,20.20
2019-02-04T11:49:08.604Z,20.70
2019-02-04T11:51:38.176Z,19.60
2019-02-04T11:54:08.026Z,19.80
2019-02-04T11:56:37.841Z,19.20
2019-02-04T11:59:07.421Z,19.50
2019-02-04T12:01:37.620Z,19.50
2019-02-04T12:04:07.671Z,19.80
2019-02-04T12:06:37.239Z,18.90
2019-02-04T12:09:09.587Z,18.40
2019-02-04T12:11:39.245Z,18.00
2019-02-04T12:14:09.353Z,19.50
2019-02-04T12:16:39.023Z,19.80
2019-02-04T12:19:08.672Z,20.00
2019-02-04T12:21:38.280Z,19.00
2019-02-04T12:24:08.132Z,19.40
2019-02-04T12:26:37.712Z,20.60
2019-02-04T12:29:07.704Z,20.40
2019-02-04T12:31:37.289Z,20.20
2019-02-04T12:34:06.924Z,19.30
2019-02-04T12:36:37.054Z,19.00
2019-02-04T12:39:15.388Z,19.70
2019-02-04T12:41:45.162Z,18.40
2019-02-04T12:44:15.267Z,18.80
2019-02-04T12:46:45.088Z,19.10
2019-02-04T12:49:14.643Z,19.00
2019-02-04T12:51:44.207Z,19.00
2019-02-04T12:54:14.245Z,17.90
2019-02-04T12:56:43.872Z,18.70
2019-02-04T12:59:13.431Z,17.80
2019-02-04T13:01:43.281Z,18.20
2019-02-04T13:04:12.827Z,18.70
2019-02-04T13:06:42.371Z,18.70
2019-02-04T13:09:12.208Z,18.80
2019-02-04T13:11:42.020Z,18.00
2019-02-04T13:14:11.591Z,17.80
2019-02-04T13:16:41.170Z,17.80
2019-02-04T13:19:10.700Z,17.70
2019-02-04T13:21:45.608Z,17.50
2019-02-04T13:24:11.750Z,17.50
2019-02-04T13:26:41.280Z,16.90
2019-02-04T13:29:10.930Z,17.60
2019-02-04T13:31:40.976Z,17.40
2019-02-04T13:34:10.554Z,18.00
2019-02-04T13:36:40.656Z,17.60
2019-02-04T13:39:10.663Z,17.70
2019-02-04T13:41:40.735Z,17.60
2019-02-04T13:44:10.860Z,17.60
2019-02-04T13:46:40.896Z,17.00
2019-02-04T13:49:10.767Z,16.70
2019-02-04T13:51:40.676Z,16.50
2019-02-04T13:54:10.240Z,17.60
2019-02-04T13:56:40.040Z,16.80
2019-02-04T13:59:09.610Z,17.30
2019-02-04T14:01:39.443Z,17.30
2019-02-04T14:04:09.332Z,17.40
2019-02-04T14:06:39.063Z,17.10
2019-02-04T14:09:16.806Z,17.10
2019-02-04T14:11:46.313Z,17.30
2019-02-04T14:14:16.166Z,17.60
2019-02-04T14:16:45.831Z,17.60
2019-02-04T14:19:15.942Z,17.80
2019-02-04T14:21:45.764Z,17.60
2019-02-04T14:24:15.352Z,17.80
2019-02-04T14:26:44.889Z,17.80
2019-02-04T14:29:14.483Z,17.30
2019-02-04T14:31:44.476Z,17.10
2019-02-04T14:34:14.417Z,17.00
2019-02-04T14:36:44.503Z,17.30
2019-02-04T14:39:16.075Z,17.40
2019-02-04T14:41:45.828Z,17.20
2019-02-04T14:44:49.148Z,16.90
2019-02-04T14:47:29.610Z,17.40
2019-02-04T14:50:52.336Z,17.50
2019-02-04T14:54:01.466Z,17.80
2019-02-04T14:56:48.934Z,17.80
2019-02-04T14:59:32.403Z,17.40
2019-02-04T15:02:45.940Z,17.80
2019-02-04T15:05:31.778Z,18.20
2019-02-04T15:08:32.986Z,18.10
2019-02-04T15:11:04.888Z,18.00
2019-02-04T15:14:07.496Z,18.10
2019-02-04T15:16:52.462Z,18.60
2019-02-04T15:20:05.580Z,18.50
2019-02-04T15:22:50.250Z,18.90
2019-02-04T15:25:56.779Z,19.20
2019-02-04T15:28:43.644Z,19.60
2019-02-04T15:31:27.364Z,19.70
2019-02-04T15:34:31.874Z,19.90
2019-02-04T15:37:19.545Z,20.00
2019-02-04T15:40:07.264Z,20.00
2019-02-04T15:43:16.558Z,20.60
2019-02-04T15:46:17.021Z,20.00
2019-02-04T15:49:22.031Z,20.60
2019-02-04T15:51:56.300Z,20.50
2019-02-04T15:54:25.841Z,20.70
2019-02-04T15:56:55.620Z,21.00
2019-02-04T15:59:25.212Z,21.30
2019-02-04T16:01:55.173Z,21.50
2019-02-04T16:04:29.665Z,21.40
2019-02-04T16:06:59.532Z,21.80
2019-02-04T16:09:29.560Z,21.90
2019-02-04T16:11:59.398Z,21.70
2019-02-04T16:14:28.941Z,21.90
2019-02-04T16:16:58.774Z,22.10
2019-02-04T16:19:28.291Z,21.90
2019-02-04T16:21:58.393Z,21.90
2019-02-04T16:24:28.004Z,22.10
2019-02-04T16:26:57.776Z,22.20
2019-02-04T16:29:27.867Z,22.30
2019-02-04T16:31:57.455Z,22.40
2019-02-04T16:34:27.264Z,22.50
2019-02-04T16:36:56.864Z,22.50
2019-02-04T16:39:26.724Z,22.60
2019-02-04T16:41:56.497Z,22.90
2019-02-04T16:44:26.436Z,22.80
2019-02-04T16:46:55.976Z,23.10
2019-02-04T16:49:25.578Z,23.30
2019-02-04T16:51:55.101Z,23.40
2019-02-04T16:54:24.933Z,23.90
2019-02-04T16:56:54.794Z,24.50
2019-02-04T16:59:24.355Z,24.80
2019-02-04T17:01:53.906Z,24.90
2019-02-04T17:04:24.005Z,24.00
2019-02-04T17:06:53.839Z,24.50
2019-02-04T17:09:23.659Z,24.50
2019-02-04T17:11:53.479Z,24.30
2019-02-04T17:14:23.083Z,24.10
2019-02-04T17:16:52.906Z,24.20
2019-02-04T17:19:22.555Z,24.30
2019-02-04T17:21:52.356Z,24.00
2019-02-04T17:24:21.988Z,24.00
2019-02-04T17:26:51.861Z,24.10
2019-02-04T17:29:21.482Z,23.80
2019-02-04T17:31:51.101Z,23.60
2019-02-04T17:34:20.997Z,23.60
2019-02-04T17:36:50.548Z,22.90
2019-02-04T17:39:20.456Z,23.40
2019-02-04T17:41:50.288Z,23.80
2019-02-04T17:44:19.904Z,23.50
2019-02-04T17:46:50.003Z,23.20
2019-02-04T17:49:19.559Z,23.60
2019-02-04T17:51:49.381Z,23.40
2019-02-04T17:54:18.962Z,23.20
2019-02-04T17:56:49.152Z,23.10
2019-02-04T17:59:19.231Z,22.90
2019-02-04T18:01:48.838Z,23.10
2019-02-04T18:04:19.753Z,24.20
2019-02-04T18:06:49.986Z,23.00
2019-02-04T18:09:19.624Z,23.10
2019-02-04T18:11:49.437Z,23.30
2019-02-04T18:14:19.018Z,23.00
2019-02-04T18:16:48.580Z,23.30
2019-02-04T18:19:18.702Z,23.20
2019-02-04T18:21:48.296Z,23.80
2019-02-04T18:24:18.729Z,23.90
2019-02-04T18:26:48.255Z,23.60
2019-02-04T18:29:18.243Z,23.50
2019-02-04T18:31:48.146Z,22.80
2019-02-04T18:34:17.697Z,23.50
2019-02-04T18:36:47.260Z,23.50
2019-02-04T18:39:17.541Z,23.30
2019-02-04T18:41:47.116Z,23.10
2019-02-04T18:44:16.686Z,22.90
2019-02-04T18:46:46.918Z,22.50
2019-02-04T18:49:16.462Z,22.60
2019-02-04T18:51:45.995Z,22.20
2019-02-04T18:54:15.581Z,22.80
2019-02-04T18:56:45.154Z,21.80
2019-02-04T18:59:14.720Z,23.10
2019-02-04T19:01:44.837Z,23.00
2019-02-04T19:04:15.787Z,23.20
2019-02-04T19:06:47.852Z,23.20
2019-02-04T19:09:17.013Z,23.40
2019-02-04T19:11:46.598Z,23.50
2019-02-04T19:14:16.451Z,22.50
2019-02-04T19:16:45.987Z,22.90
2019-02-04T19:19:16.110Z,22.90
2019-02-04T19:21:45.908Z,22.80
2019-02-04T19:24:16.003Z,22.10
2019-02-04T19:26:45.821Z,22.60
2019-02-04T19:29:15.421Z,22.60
2019-02-04T19:31:45.261Z,21.80
2019-02-04T19:34:14.879Z,22.60
2019-02-04T19:36:44.931Z,22.80
2019-02-04T19:39:14.531Z,22.70
2019-02-04T19:41:44.088Z,23.20
2019-02-04T19:44:13.693Z,23.10
2019-02-04T19:46:43.562Z,23.20
2019-02-04T19:49:13.101Z,23.10
2019-02-04T19:51:42.775Z,22.50
2019-02-04T19:54:21.098Z,22.60
2019-02-04T19:56:43.672Z,21.80
2019-02-04T19:59:13.633Z,21.90
2019-02-04T20:01:43.481Z,21.90
2019-02-04T20:04:13.055Z,21.80
2019-02-04T20:06:43.143Z,22.10
2019-02-04T20:09:12.879Z,21.30
2019-02-04T20:11:42.889Z,21.80
2019-02-04T20:14:12.562Z,21.50
2019-02-04T20:16:42.194Z,21.70
2019-02-04T20:19:11.792Z,21.80
2019-02-04T20:21:41.467Z,21.50
2019-02-04T20:24:11.066Z,21.20
2019-02-04T20:26:40.784Z,21.00
2019-02-04T20:29:10.527Z,20.60
2019-02-04T20:31:40.150Z,20.70
2019-02-04T20:34:09.961Z,20.60
2019-02-04T20:36:39.653Z,20.30
2019-02-04T20:39:10.992Z,20.30
2019-02-04T20:41:40.930Z,19.70
2019-02-04T20:44:10.558Z,19.70
2019-02-04T20:46:40.171Z,19.40
2019-02-04T20:49:09.795Z,19.40
2019-02-04T20:51:39.463Z,19.10
2019-02-04T20:54:19.440Z,18.50
2019-02-04T20:56:41.035Z,18.80
2019-02-04T20:59:11.441Z,18.90
2019-02-04T21:01:41.167Z,19.10
2019-02-04T21:04:11.003Z,19.00
2019-02-04T21:06:40.676Z,19.00
2019-02-04T21:09:10.691Z,19.20
2019-02-04T21:11:40.432Z,19.30
2019-02-04T21:14:11.168Z,19.40
2019-02-04T21:16:41.142Z,19.40
2019-02-04T21:19:11.050Z,19.80
2019-02-04T21:21:40.736Z,19.90
2019-02-04T21:24:10.886Z,20.00
2019-02-04T21:26:40.860Z,20.20
2019-02-04T21:29:10.462Z,20.50
2019-02-04T21:31:40.344Z,20.60
2019-02-04T21:34:09.971Z,20.70
2019-02-04T21:36:40.242Z,21.10
2019-02-04T21:39:11.048Z,21.40
2019-02-04T21:41:41.171Z,21.70
2019-02-04T21:44:10.852Z,22.30
2019-02-04T21:46:40.747Z,22.70
2019-02-04T21:49:10.667Z,23.00
2019-02-04T21:51:40.302Z,23.20
2019-02-04T21:54:09.979Z,23.20
2019-02-04T21:56:39.627Z,23.60
2019-02-04T21:59:09.541Z,23.70
2019-02-04T22:01:39.175Z,24.10
2019-02-04T22:04:08.950Z,23.20
2019-02-04T22:06:38.498Z,23.40
2019-02-04T22:09:09.750Z,24.40
2019-02-04T22:11:39.367Z,24.40
2019-02-04T22:14:09.302Z,24.20
2019-02-04T22:16:39.183Z,24.20
2019-02-04T22:19:09.083Z,24.20
2019-02-04T22:21:38.638Z,23.40
2019-02-04T22:24:08.974Z,24.30
2019-02-04T22:26:38.500Z,24.10
2019-02-04T22:29:08.543Z,24.50
2019-02-04T22:31:38.083Z,24.60
2019-02-04T22:34:08.221Z,24.30
2019-02-04T22:36:37.807Z,24.90
2019-02-04T22:39:09.276Z,24.30
2019-02-04T22:41:39.103Z,24.70
2019-02-04T22:44:09.227Z,23.70
2019-02-04T22:46:38.796Z,24.20
2019-02-04T22:49:08.369Z,24.00
2019-02-04T22:51:38.218Z,24.70
2019-02-04T22:54:08.959Z,24.60
2019-02-04T22:56:39.052Z,24.50
2019-02-04T22:59:08.663Z,24.50
2019-02-04T23:01:46.693Z,24.10
2019-02-04T23:04:16.806Z,23.80
2019-02-04T23:06:46.858Z,23.90
2019-02-04T23:09:16.692Z,23.50
2019-02-04T23:11:46.386Z,24.00
2019-02-04T23:14:16.011Z,23.70
2019-02-04T23:16:45.923Z,24.00
2019-02-04T23:19:15.542Z,23.90
2019-02-04T23:21:45.082Z,23.90
2019-02-04T23:24:14.696Z,24.30
2019-02-04T23:26:44.554Z,24.80
2019-02-04T23:29:14.104Z,24.80
2019-02-04T23:31:43.694Z,24.50
2019-02-04T23:34:13.963Z,24.60
2019-02-04T23:36:44.088Z,24.70
2019-02-04T23:39:14.030Z,25.10
2019-02-04T23:41:43.825Z,24.90
2019-02-04T23:44:13.371Z,24.70
2019-02-04T23:46:43.232Z,24.20
2019-02-04T23:49:12.813Z,24.70
2019-02-04T23:51:42.649Z,24.80
2019-02-04T23:54:12.224Z,24.50
2019-02-04T23:56:41.827Z,24.80
2019-02-04T23:59:11.687Z,24.50
